Terminal Aerodrome Forecast
Issued by NWS

Home | Current Version | Previous Version | Text Only | Print | Product List | Glossary On
Versions: 1 2 3 4 5 6 7 8 9 10 11 12 13 14 15 16 17 18 19 20 21 22 23 24 25 26 27 28 29 30 31 32
000
FTUS41 KOKX 221431 AAA
TAFHPN
TAF AMD
KHPN 221431Z 2215/2312 34005KT P6SM FEW250
     FM221700 27006KT P6SM SCT200
     FM222200 30007KT P6SM VCTS SCT060CB BKN150
     FM230000 VRB03KT P6SM VCTS SCT060CB BKN120
     FM230400 VRB03KT P6SM VCTS SCT060CB BKN080
     FM230700 01005KT P6SM VCSH OVC060 PROB30 2307/2310 TS OVC040CB
      AMD NOT SKED=

USA.gov is the U.S. government's official web portal to all federal, state and local government web resources and services.